createdAt,value
2023-05-01T00:00:42.546Z,70.0745
2023-05-01T00:01:42.654Z,69.3225
2023-05-01T00:02:42.921Z,72.4495
2023-05-01T00:03:43.180Z,71.9722
2023-05-01T00:04:43.441Z,71.7784
2023-05-01T00:05:43.542Z,69.7924
2023-05-01T00:06:43.684Z,68.6792
2023-05-01T00:07:43.816Z,67.7353
2023-05-01T00:08:43.932Z,69.3267
2023-05-01T00:09:44.088Z,72.1841
2023-05-01T00:10:44.189Z,72.8017
2023-05-01T00:11:44.327Z,73.4687
2023-05-01T00:12:44.469Z,75.2400
2023-05-01T00:13:44.573Z,76.1571
2023-05-01T00:14:44.684Z,75.5089
2023-05-01T00:15:44.812Z,76.0013
2023-05-01T00:16:44.979Z,74.6442
2023-05-01T00:17:45.193Z,73.3027
2023-05-01T00:18:45.309Z,75.0097
2023-05-01T00:19:45.401Z,74.8285
2023-05-01T00:20:45.501Z,75.8523
2023-05-01T00:21:45.694Z,73.6967
2023-05-01T00:22:45.799Z,71.2051
2023-05-01T00:23:45.939Z,74.0927
2023-05-01T00:24:46.045Z,73.0662
2023-05-01T00:25:46.188Z,75.8638
2023-05-01T00:26:46.366Z,73.0732
2023-05-01T00:27:46.471Z,71.2292
2023-05-01T00:28:46.582Z,70.7958
2023-05-01T00:29:46.696Z,73.2341
2023-05-01T00:30:46.863Z,77.6248
2023-05-01T00:31:47.076Z,76.1811
2023-05-01T00:32:47.325Z,73.7633
2023-05-01T00:33:47.393Z,73.2935
2023-05-01T00:34:47.482Z,73.0884
2023-05-01T00:35:47.601Z,76.5254
2023-05-01T00:36:49.707Z,77.5819
2023-05-01T00:37:50.100Z,78.1527
2023-05-01T00:38:50.227Z,77.3089
2023-05-01T00:39:50.330Z,77.4946
2023-05-01T00:40:50.476Z,75.7332
2023-05-01T00:41:50.622Z,74.4721
2023-05-01T00:42:50.747Z,77.7929
2023-05-01T00:43:50.906Z,75.4985
2023-05-01T00:44:51.005Z,74.0037
2023-05-01T00:45:51.164Z,74.3488
2023-05-01T00:46:51.259Z,73.7169
2023-05-01T00:47:51.445Z,73.3237
2023-05-01T00:48:51.547Z,72.6721
2023-05-01T00:49:51.659Z,72.3527
2023-05-01T00:50:51.767Z,72.8651
2023-05-01T00:51:51.944Z,72.4485
2023-05-01T00:52:52.032Z,74.3825
2023-05-01T00:53:52.144Z,74.9553
2023-05-01T00:54:52.287Z,76.9024
2023-05-01T00:55:52.421Z,78.0277
2023-05-01T00:56:52.566Z,78.5846
2023-05-01T00:57:52.714Z,78.4454
2023-05-01T00:58:52.829Z,78.7672
2023-05-01T00:59:53.000Z,77.4822
2023-05-01T01:00:53.200Z,77.6905
2023-05-01T01:01:55.678Z,79.0627
2023-05-01T01:02:53.467Z,81.7477
2023-05-01T01:03:53.642Z,79.5288
2023-05-01T01:04:53.727Z,81.9075
2023-05-01T01:05:53.851Z,82.5233
2023-05-01T01:06:53.953Z,81.6688
2023-05-01T01:07:54.079Z,78.8875
2023-05-01T01:08:54.216Z,76.7768
2023-05-01T01:09:54.414Z,76.1750
2023-05-01T01:10:54.530Z,78.0041
2023-05-01T01:11:54.636Z,77.9363
2023-05-01T01:12:54.773Z,76.0979
2023-05-01T01:13:54.918Z,76.3555
2023-05-01T01:14:55.015Z,75.5806
2023-05-01T01:15:55.133Z,75.6748
2023-05-01T01:16:55.286Z,75.8981
2023-05-01T01:17:55.405Z,76.0218
2023-05-01T01:18:55.552Z,78.0038
2023-05-01T01:19:55.955Z,77.8450
2023-05-01T01:20:56.203Z,79.0215
2023-05-01T01:21:56.334Z,80.9338
2023-05-01T01:22:56.447Z,81.5688
2023-05-01T01:23:56.578Z,80.6847
2023-05-01T01:24:56.766Z,79.3849
2023-05-01T01:25:56.863Z,79.8151
2023-05-01T01:26:56.988Z,80.5871
2023-05-01T01:27:57.117Z,79.7989
2023-05-01T01:28:57.217Z,79.8599
2023-05-01T01:29:57.638Z,81.5115
2023-05-01T01:30:58.067Z,81.6802
2023-05-01T01:31:58.174Z,82.4383
2023-05-01T01:32:58.346Z,82.8300
2023-05-01T01:33:58.460Z,81.0339
2023-05-01T01:34:58.571Z,80.1946
2023-05-01T01:35:58.722Z,79.5571
2023-05-01T01:36:58.887Z,80.5966
2023-05-01T01:37:59.020Z,80.9854
2023-05-01T01:38:59.143Z,80.8818
2023-05-01T01:39:59.281Z,80.6273
2023-05-01T01:40:59.425Z,79.9941
2023-05-01T01:41:59.616Z,78.1563
2023-05-01T01:42:59.809Z,78.5600
2023-05-01T01:43:59.905Z,80.8954
2023-05-01T01:45:00.050Z,79.9352
2023-05-01T01:46:00.220Z,79.5805
2023-05-01T01:47:00.306Z,78.1025
2023-05-01T01:48:00.539Z,77.9438
2023-05-01T01:49:00.647Z,78.0436
2023-05-01T01:50:00.774Z,79.4448
2023-05-01T01:51:00.904Z,78.6048
2023-05-01T01:52:01.036Z,78.0423
2023-05-01T01:53:01.145Z,78.5698
2023-05-01T01:54:01.266Z,79.2059
2023-05-01T01:55:01.382Z,79.1518
2023-05-01T01:56:03.574Z,79.6885
2023-05-01T01:57:03.947Z,80.2175
2023-05-01T01:58:04.083Z,79.5052
2023-05-01T01:59:04.223Z,78.6279
2023-05-01T02:00:04.321Z,78.7296
2023-05-01T02:01:04.510Z,79.4414
2023-05-01T02:02:04.753Z,78.1080
2023-05-01T02:03:05.005Z,78.5361
2023-05-01T02:04:05.105Z,78.2321
2023-05-01T02:05:05.225Z,78.7766
2023-05-01T02:06:05.367Z,78.1096
2023-05-01T02:07:05.520Z,77.8126
2023-05-01T02:08:05.650Z,77.1243
2023-05-01T02:09:05.786Z,77.3586
2023-05-01T02:10:06.051Z,77.6497
2023-05-01T02:11:06.131Z,78.0781
2023-05-01T02:12:06.237Z,78.8944
2023-05-01T02:13:06.375Z,77.3841
2023-05-01T02:14:06.509Z,76.4526
2023-05-01T02:15:06.626Z,76.7093
2023-05-01T02:16:06.828Z,76.2970
2023-05-01T02:17:06.900Z,76.7948
2023-05-01T02:18:07.055Z,76.9813
2023-05-01T02:19:07.183Z,76.4716
2023-05-01T02:20:07.304Z,77.2146
2023-05-01T02:21:07.443Z,76.8499
2023-05-01T02:22:07.555Z,76.0365
2023-05-01T02:23:07.714Z,76.1674
2023-05-01T02:24:07.832Z,76.7921
2023-05-01T02:25:07.973Z,77.1341
2023-05-01T02:26:08.081Z,76.8504
2023-05-01T02:27:08.224Z,76.5232
2023-05-01T02:28:08.330Z,76.7906
2023-05-01T02:29:08.478Z,76.6749
2023-05-01T02:30:08.582Z,77.0840
2023-05-01T02:31:08.715Z,78.0134
2023-05-01T02:32:08.875Z,76.7847
2023-05-01T02:33:09.062Z,76.9574
2023-05-01T02:34:09.172Z,76.7583
2023-05-01T02:35:09.306Z,77.4144
2023-05-01T02:36:09.409Z,77.1840
2023-05-01T02:37:09.545Z,76.3301
2023-05-01T02:38:09.673Z,77.8659
2023-05-01T02:39:09.812Z,78.4821
2023-05-01T02:40:09.922Z,77.8383
2023-05-01T02:41:10.033Z,77.6961
2023-05-01T02:42:10.164Z,77.3607
2023-05-01T02:43:10.355Z,77.2585
2023-05-01T02:44:10.452Z,77.1519
2023-05-01T02:45:10.610Z,77.5284
2023-05-01T02:46:10.765Z,77.7949
2023-05-01T02:47:10.895Z,77.8913
2023-05-01T02:48:11.097Z,77.9144
2023-05-01T02:49:11.213Z,78.4929
2023-05-01T02:50:11.340Z,78.0490
2023-05-01T02:51:11.455Z,77.9100
2023-05-01T02:52:11.566Z,78.0557
2023-05-01T02:53:11.767Z,77.6991
2023-05-01T02:54:11.879Z,78.3783
2023-05-01T02:55:12.056Z,79.3976
2023-05-01T02:56:12.186Z,80.4779
2023-05-01T02:57:12.374Z,80.6949
2023-05-01T02:58:12.475Z,79.6783
2023-05-01T02:59:12.627Z,81.6039
2023-05-01T03:00:12.792Z,81.4940
2023-05-01T03:01:12.975Z,81.2484
2023-05-01T03:02:13.086Z,81.3926
2023-05-01T03:03:13.271Z,83.2273
2023-05-01T03:04:13.450Z,84.0165
2023-05-01T03:05:13.569Z,85.6736
2023-05-01T03:06:13.794Z,86.5589
2023-05-01T03:07:13.887Z,86.8835
2023-05-01T03:08:13.992Z,85.8241
2023-05-01T03:09:14.126Z,85.3181
2023-05-01T03:10:14.254Z,84.5624
2023-05-01T03:11:14.410Z,84.7188
2023-05-01T03:12:14.517Z,83.5537
2023-05-01T03:13:14.660Z,83.7486
2023-05-01T03:14:14.767Z,83.9162
2023-05-01T03:15:14.962Z,84.3008
2023-05-01T03:16:15.158Z,84.4869
2023-05-01T03:17:15.268Z,85.3200
2023-05-01T03:18:15.397Z,86.2396
2023-05-01T03:19:15.558Z,86.1286
2023-05-01T03:20:15.686Z,85.7799
2023-05-01T03:21:15.824Z,85.9491
2023-05-01T03:22:15.928Z,86.8879
2023-05-01T03:23:19.197Z,85.3501
2023-05-01T03:24:16.107Z,84.2845
2023-05-01T03:25:16.231Z,85.6050
2023-05-01T03:26:16.364Z,85.0640
2023-05-01T03:27:16.491Z,84.4311
2023-05-01T03:28:16.628Z,84.0803
2023-05-01T03:29:16.768Z,84.6196
2023-05-01T03:30:16.914Z,84.2163
2023-05-01T03:31:17.049Z,85.1565
2023-05-01T03:32:17.258Z,83.7179
2023-05-01T03:33:17.406Z,83.9201
2023-05-01T03:34:17.527Z,87.1258
2023-05-01T03:35:17.750Z,85.4057
2023-05-01T03:36:17.866Z,84.6799
2023-05-01T03:37:18.028Z,85.5523
2023-05-01T03:38:18.150Z,85.4732
2023-05-01T03:39:18.306Z,84.5352
2023-05-01T03:40:18.437Z,85.7643
2023-05-01T03:41:18.576Z,84.1136
2023-05-01T03:42:18.770Z,85.1824
2023-05-01T03:43:18.892Z,86.3806
2023-05-01T03:44:19.054Z,86.3569
2023-05-01T03:45:19.173Z,85.3023
2023-05-01T03:46:19.329Z,86.1723
2023-05-01T03:47:19.439Z,86.0502
2023-05-01T03:48:19.595Z,84.9096
2023-05-01T03:49:19.715Z,84.6888
2023-05-01T03:50:19.835Z,84.5702
2023-05-01T03:51:19.999Z,85.5555
2023-05-01T03:52:20.171Z,87.0339
2023-05-01T03:53:20.315Z,86.2912
2023-05-01T03:54:20.502Z,87.0631
2023-05-01T03:55:20.613Z,88.1170
2023-05-01T03:56:20.754Z,87.9889
2023-05-01T03:57:20.941Z,87.8397
2023-05-01T03:58:21.060Z,88.6821
2023-05-01T03:59:21.199Z,89.1761
2023-05-01T04:00:21.324Z,89.0541
2023-05-01T04:01:21.458Z,89.5734
2023-05-01T04:02:21.718Z,89.2493
2023-05-01T04:03:22.107Z,89.4620
2023-05-01T04:04:22.251Z,89.7162
2023-05-01T04:05:22.377Z,89.1652
2023-05-01T04:06:22.548Z,89.4753
2023-05-01T04:07:22.678Z,90.3744
2023-05-01T04:08:22.782Z,89.6118
2023-05-01T04:09:22.909Z,89.5962
2023-05-01T04:10:23.028Z,88.6403
2023-05-01T04:11:23.155Z,88.7981
2023-05-01T04:12:23.292Z,88.5829
2023-05-01T04:13:23.412Z,89.1922
2023-05-01T04:14:23.561Z,88.5517
2023-05-01T04:15:23.710Z,88.1104
2023-05-01T04:16:23.844Z,88.1423
2023-05-01T04:17:23.982Z,88.1067
2023-05-01T04:18:24.110Z,88.3719
2023-05-01T04:19:24.230Z,88.5136
2023-05-01T04:20:24.369Z,89.3849
2023-05-01T04:21:24.484Z,89.7513
2023-05-01T04:22:24.602Z,89.8963
2023-05-01T04:23:24.919Z,90.3308
2023-05-01T04:24:25.002Z,91.0290
2023-05-01T04:25:25.152Z,90.9351
2023-05-01T04:26:25.275Z,90.9059
2023-05-01T04:27:25.436Z,90.8208
2023-05-01T04:28:25.553Z,90.6509
2023-05-01T04:29:25.679Z,90.4517
2023-05-01T04:30:25.821Z,90.6667
2023-05-01T04:31:25.965Z,90.7386
2023-05-01T04:32:26.132Z,91.0063
2023-05-01T04:33:26.222Z,91.1584
2023-05-01T04:34:26.338Z,91.1563
2023-05-01T04:35:26.482Z,91.4735
2023-05-01T04:36:26.619Z,91.2714
2023-05-01T04:37:26.751Z,91.7358
2023-05-01T04:38:26.864Z,92.1408
2023-05-01T04:39:27.008Z,91.8234
2023-05-01T04:40:27.125Z,91.7004
2023-05-01T04:41:27.245Z,91.6933
2023-05-01T04:42:27.358Z,91.5672
2023-05-01T04:43:27.489Z,91.6785
2023-05-01T04:44:27.646Z,92.1350
2023-05-01T04:45:27.785Z,91.9691
2023-05-01T04:46:27.932Z,91.1760
2023-05-01T04:47:28.032Z,90.2282
2023-05-01T04:48:28.141Z,90.2452
2023-05-01T04:49:28.282Z,90.9420
2023-05-01T04:50:28.399Z,90.7991
2023-05-01T04:51:28.520Z,90.9188
2023-05-01T04:52:28.640Z,90.0204
2023-05-01T04:53:28.780Z,89.9512
2023-05-01T04:54:28.921Z,90.2445
2023-05-01T04:55:31.023Z,91.0129
2023-05-01T04:56:31.333Z,90.3985
2023-05-01T04:57:31.454Z,90.5740
2023-05-01T04:58:31.571Z,91.0459
2023-05-01T04:59:31.748Z,90.4180
2023-05-01T05:00:31.901Z,90.6331
2023-05-01T05:01:32.075Z,90.0748
2023-05-01T05:02:32.285Z,89.6130
2023-05-01T05:03:32.594Z,89.6895
2023-05-01T05:04:32.730Z,90.1557
2023-05-01T05:05:32.896Z,90.7123
2023-05-01T05:06:33.070Z,89.9207
2023-05-01T05:07:33.184Z,89.9757
2023-05-01T05:08:33.309Z,90.4130
2023-05-01T05:09:33.458Z,90.3663
2023-05-01T05:10:33.586Z,90.8732
2023-05-01T05:11:33.702Z,89.9405
2023-05-01T05:12:33.834Z,89.8248
2023-05-01T05:13:33.995Z,89.1479
2023-05-01T05:14:34.109Z,89.6286
2023-05-01T05:15:34.282Z,89.7232
2023-05-01T05:16:34.458Z,90.1601
2023-05-01T05:17:34.583Z,90.9955
2023-05-01T05:18:34.689Z,91.1674
2023-05-01T05:19:34.818Z,91.2291
2023-05-01T05:20:34.947Z,91.1820
2023-05-01T05:21:35.085Z,91.5705
2023-05-01T05:22:35.206Z,91.6737
2023-05-01T05:23:35.360Z,91.3605
2023-05-01T05:24:35.489Z,91.7124
2023-05-01T05:25:35.600Z,91.7521
2023-05-01T05:26:35.729Z,92.0564
2023-05-01T05:27:35.893Z,92.1341
2023-05-01T05:28:36.003Z,91.8452
2023-05-01T05:29:36.174Z,91.9599
2023-05-01T05:30:36.278Z,91.7362
2023-05-01T05:31:36.469Z,92.4312
2023-05-01T05:32:36.660Z,91.8899
2023-05-01T05:33:36.763Z,91.9794
2023-05-01T05:34:36.870Z,91.9067
2023-05-01T05:35:37.029Z,91.8268
2023-05-01T05:36:37.134Z,92.1836
2023-05-01T05:37:37.275Z,92.0774
2023-05-01T05:38:37.395Z,92.2507
2023-05-01T05:39:37.551Z,92.5362
2023-05-01T05:40:37.664Z,92.3758
2023-05-01T05:41:37.817Z,92.6681
2023-05-01T05:42:37.938Z,93.1179
2023-05-01T05:43:38.127Z,93.0719
2023-05-01T05:44:38.303Z,93.4318
2023-05-01T05:45:38.495Z,93.5799
2023-05-01T05:46:38.726Z,93.9567
2023-05-01T05:47:38.973Z,93.6670
2023-05-01T05:48:39.235Z,93.7842
2023-05-01T05:49:39.295Z,93.4286
2023-05-01T05:50:39.419Z,93.4678
2023-05-01T05:51:39.571Z,93.6934
2023-05-01T05:52:39.704Z,93.5519
2023-05-01T05:53:39.831Z,93.6861
2023-05-01T05:54:39.967Z,93.6258
2023-05-01T05:55:40.150Z,93.7817
2023-05-01T05:56:40.299Z,93.9164
2023-05-01T05:57:40.454Z,93.7938
2023-05-01T05:58:40.579Z,93.8475
2023-05-01T05:59:40.720Z,93.6399
2023-05-01T06:00:40.846Z,93.7363
2023-05-01T06:01:40.965Z,93.4324
2023-05-01T06:02:41.160Z,93.4625
2023-05-01T06:03:41.495Z,92.7906
2023-05-01T06:04:41.762Z,92.6888
2023-05-01T06:05:41.941Z,92.8194
2023-05-01T06:06:42.080Z,93.1175
2023-05-01T06:07:42.177Z,92.7581
2023-05-01T06:08:42.303Z,92.5677
2023-05-01T06:09:42.489Z,92.9313
2023-05-01T06:10:42.604Z,93.1387
2023-05-01T06:11:43.045Z,92.2975
2023-05-01T06:12:47.051Z,92.5716
2023-05-01T06:13:45.986Z,92.4707
2023-05-01T06:14:46.099Z,92.8380
2023-05-01T06:15:46.271Z,92.8302
2023-05-01T06:16:46.370Z,93.3660
2023-05-01T06:17:46.587Z,93.1162
2023-05-01T06:18:46.703Z,93.4148
2023-05-01T06:19:46.802Z,93.4702
2023-05-01T06:20:46.933Z,93.5048
2023-05-01T06:21:47.057Z,93.3771
2023-05-01T06:22:47.195Z,93.1997
2023-05-01T06:23:47.331Z,92.6315
2023-05-01T06:24:47.448Z,92.3872
2023-05-01T06:25:47.570Z,92.2427
2023-05-01T06:26:47.707Z,92.1532
2023-05-01T06:27:47.836Z,92.4910
2023-05-01T06:28:48.000Z,92.4846
2023-05-01T06:29:48.146Z,92.9575
2023-05-01T06:30:48.271Z,92.3925
2023-05-01T06:31:48.415Z,92.3266
2023-05-01T06:32:48.611Z,92.9933
2023-05-01T06:33:48.781Z,92.8572
2023-05-01T06:34:48.914Z,92.6946
2023-05-01T06:35:49.064Z,92.6458
2023-05-01T06:36:49.192Z,92.5780
2023-05-01T06:37:49.310Z,92.1296
2023-05-01T06:38:49.460Z,92.2616
2023-05-01T06:39:49.611Z,91.8854
2023-05-01T06:40:49.731Z,91.6872
2023-05-01T06:41:49.917Z,92.0810
2023-05-01T06:42:50.083Z,92.6155
2023-05-01T06:43:50.229Z,92.4071
2023-05-01T06:44:50.342Z,92.3401
2023-05-01T06:45:50.472Z,92.4260
2023-05-01T06:46:50.708Z,92.6330
2023-05-01T06:47:50.881Z,93.0076
2023-05-01T06:48:50.992Z,92.5370
2023-05-01T06:49:51.134Z,91.9993
2023-05-01T06:50:51.270Z,92.1497
2023-05-01T06:51:51.427Z,92.1480
2023-05-01T06:52:51.574Z,92.2543
2023-05-01T06:53:51.749Z,92.2059
2023-05-01T06:54:51.940Z,91.6003
2023-05-01T06:55:52.053Z,91.3870
2023-05-01T06:56:52.242Z,92.3943
2023-05-01T06:57:52.378Z,92.7978
2023-05-01T06:58:52.521Z,92.8311
2023-05-01T06:59:52.670Z,91.8095
2023-05-01T07:00:52.846Z,91.5016
2023-05-01T07:01:52.975Z,91.5680
2023-05-01T07:02:53.219Z,91.9392
2023-05-01T07:03:54.378Z,91.6032
2023-05-01T07:04:54.517Z,91.8702
2023-05-01T07:05:54.654Z,91.6543
2023-05-01T07:06:54.843Z,91.3713
2023-05-01T07:08:01.336Z,90.8559
2023-05-01T07:08:57.765Z,91.0655
2023-05-01T07:09:58.377Z,90.6671
2023-05-01T07:10:58.737Z,91.6580
2023-05-01T07:11:58.919Z,91.2439
2023-05-01T07:12:59.061Z,91.4551
2023-05-01T07:13:59.188Z,91.1125
2023-05-01T07:14:59.328Z,90.2656
2023-05-01T07:15:59.459Z,90.1133
2023-05-01T07:16:59.649Z,89.9229
2023-05-01T07:17:59.781Z,89.9435
2023-05-01T07:18:59.912Z,89.8988
2023-05-01T07:20:00.056Z,89.9031
2023-05-01T07:21:00.224Z,90.0290
2023-05-01T07:22:00.352Z,90.4617
2023-05-01T07:23:00.511Z,90.8775
2023-05-01T07:24:00.652Z,90.9248
2023-05-01T07:25:00.760Z,90.9501
2023-05-01T07:26:00.919Z,91.1426
2023-05-01T07:27:01.070Z,90.5280
2023-05-01T07:28:01.225Z,90.9845
2023-05-01T07:29:01.369Z,90.9200
2023-05-01T07:30:01.516Z,91.1390
2023-05-01T07:31:01.671Z,91.3765
2023-05-01T07:32:01.773Z,90.6867
2023-05-01T07:33:02.022Z,90.8151
2023-05-01T07:34:02.145Z,90.4820
2023-05-01T07:35:02.299Z,90.5047
2023-05-01T07:36:02.895Z,90.2090
2023-05-01T07:37:02.954Z,90.2952
2023-05-01T07:38:03.072Z,90.4210
2023-05-01T07:39:03.216Z,90.5876
2023-05-01T07:40:03.341Z,90.5302
2023-05-01T07:41:03.522Z,90.6805
2023-05-01T07:42:03.668Z,89.9382
2023-05-01T07:43:03.789Z,88.7003
2023-05-01T07:44:03.901Z,89.2582
2023-05-01T07:45:04.073Z,90.2444
2023-05-01T07:46:04.244Z,90.5998
2023-05-01T07:47:04.339Z,90.8952
2023-05-01T07:48:04.565Z,89.8232
2023-05-01T07:49:04.676Z,90.3071
2023-05-01T07:50:04.797Z,90.5174
2023-05-01T07:51:05.117Z,89.9929
2023-05-01T07:52:05.172Z,90.8672
2023-05-01T07:53:05.335Z,90.8232
2023-05-01T07:54:05.466Z,90.3186
2023-05-01T07:55:05.667Z,90.8916
2023-05-01T07:56:05.811Z,90.1047
2023-05-01T07:57:05.953Z,89.8008
2023-05-01T07:58:06.088Z,89.4089
2023-05-01T07:59:06.242Z,89.3073
2023-05-01T08:00:06.417Z,89.2921
2023-05-01T08:01:06.541Z,89.7282
2023-05-01T08:02:06.696Z,89.2674
2023-05-01T08:03:07.094Z,89.3458
2023-05-01T08:04:08.396Z,90.1139
2023-05-01T08:05:08.536Z,90.6700
2023-05-01T08:06:08.749Z,90.7482
2023-05-01T08:07:08.939Z,90.6185
2023-05-01T08:08:09.076Z,90.5228
2023-05-01T08:09:09.178Z,89.9980
2023-05-01T08:10:09.343Z,89.7796
2023-05-01T08:11:09.462Z,89.4597
2023-05-01T08:12:09.585Z,88.8227
2023-05-01T08:13:09.706Z,89.3324
2023-05-01T08:14:09.812Z,89.6959
2023-05-01T08:15:09.926Z,88.7577
2023-05-01T08:16:10.171Z,90.0351
2023-05-01T08:17:10.292Z,89.4580
2023-05-01T08:18:10.467Z,89.9332
2023-05-01T08:19:10.596Z,90.0767
2023-05-01T08:20:10.764Z,90.9049
2023-05-01T08:21:10.893Z,91.7568
2023-05-01T08:22:11.118Z,91.8778
2023-05-01T08:23:11.180Z,91.5223
2023-05-01T08:24:11.315Z,90.7397
2023-05-01T08:25:11.472Z,91.1283
2023-05-01T08:26:11.566Z,90.3728
2023-05-01T08:27:11.737Z,90.4756
2023-05-01T08:28:11.928Z,90.5199
2023-05-01T08:29:12.053Z,90.2241
2023-05-01T08:30:12.180Z,90.2221
2023-05-01T08:31:12.392Z,90.7740
2023-05-01T08:32:12.484Z,90.4338
2023-05-01T08:33:12.707Z,89.8020
2023-05-01T08:34:12.836Z,88.8453
2023-05-01T08:35:13.009Z,89.4647
2023-05-01T08:36:13.135Z,89.2468
2023-05-01T08:37:13.267Z,90.0393
2023-05-01T08:38:13.512Z,90.4262
2023-05-01T08:39:13.590Z,90.5024
2023-05-01T08:40:13.706Z,90.3875
2023-05-01T08:41:13.851Z,89.9310
2023-05-01T08:42:13.979Z,89.4987
2023-05-01T08:43:14.105Z,89.8744
2023-05-01T08:44:14.261Z,90.4885
2023-05-01T08:45:14.429Z,90.7281
2023-05-01T08:46:14.598Z,90.4561
2023-05-01T08:47:14.820Z,90.5163
2023-05-01T08:48:14.958Z,90.5785
2023-05-01T08:49:15.079Z,90.5196
2023-05-01T08:50:15.192Z,91.1851
2023-05-01T08:51:15.331Z,90.8111
2023-05-01T08:52:15.463Z,90.4035
2023-05-01T08:53:15.585Z,90.5347
2023-05-01T08:54:15.745Z,90.9850
2023-05-01T08:55:15.848Z,91.4026
2023-05-01T08:56:15.971Z,91.4656
2023-05-01T08:57:16.112Z,91.4480
2023-05-01T08:58:16.227Z,90.9435
2023-05-01T08:59:16.374Z,90.8667
2023-05-01T09:00:16.565Z,91.6098
2023-05-01T09:01:16.737Z,91.4518
2023-05-01T09:02:16.920Z,90.8669
2023-05-01T09:03:17.140Z,91.1105
2023-05-01T09:04:17.371Z,91.0947
2023-05-01T09:05:17.512Z,90.5558
2023-05-01T09:06:17.741Z,90.5480
2023-05-01T09:07:17.850Z,90.6315
2023-05-01T09:08:17.983Z,90.8683
2023-05-01T09:09:18.125Z,91.0657
2023-05-01T09:10:18.306Z,90.8654
2023-05-01T09:11:18.441Z,90.4679
2023-05-01T09:12:18.581Z,90.3868
2023-05-01T09:13:18.753Z,90.2686
2023-05-01T09:14:18.877Z,90.4778
2023-05-01T09:15:19.021Z,90.2931
2023-05-01T09:16:19.166Z,90.0190
2023-05-01T09:17:19.371Z,89.8093
2023-05-01T09:18:19.737Z,90.0176
2023-05-01T09:19:19.877Z,90.3118
2023-05-01T09:20:20.017Z,90.5242
2023-05-01T09:21:20.139Z,90.8641
2023-05-01T09:22:20.255Z,90.4430
2023-05-01T09:23:20.426Z,90.6263
2023-05-01T09:24:20.612Z,90.4493
2023-05-01T09:25:20.737Z,91.0437
2023-05-01T09:26:20.862Z,90.2217
2023-05-01T09:27:21.022Z,90.5774
2023-05-01T09:28:21.148Z,89.7754
2023-05-01T09:29:21.274Z,89.8010
2023-05-01T09:30:21.431Z,89.7196
2023-05-01T09:31:21.628Z,89.9915
2023-05-01T09:32:21.873Z,89.6922
2023-05-01T09:33:22.083Z,89.7944
2023-05-01T09:34:22.187Z,89.6216
2023-05-01T09:35:22.314Z,90.1821
2023-05-01T09:36:22.447Z,89.9001
2023-05-01T09:37:22.580Z,88.8259
2023-05-01T09:38:22.692Z,88.1369
2023-05-01T09:39:22.805Z,87.9196
2023-05-01T09:40:22.927Z,88.4142
2023-05-01T09:41:23.102Z,88.5385
2023-05-01T09:42:23.253Z,89.3160
2023-05-01T09:43:23.385Z,88.2422
2023-05-01T09:44:23.555Z,88.5741
2023-05-01T09:45:23.738Z,88.6150
2023-05-01T09:46:23.865Z,87.9858
2023-05-01T09:47:23.969Z,87.5788
2023-05-01T09:48:24.112Z,88.3181
2023-05-01T09:49:24.233Z,87.0381
2023-05-01T09:50:24.393Z,87.4856
2023-05-01T09:51:24.561Z,87.2835
2023-05-01T09:52:24.680Z,87.7172
2023-05-01T09:53:24.954Z,88.5142
2023-05-01T09:54:25.081Z,88.8481
2023-05-01T09:55:25.790Z,89.5164
2023-05-01T09:56:26.109Z,89.8476
2023-05-01T09:57:26.245Z,88.9805
2023-05-01T09:58:26.432Z,87.8123
2023-05-01T09:59:26.548Z,87.6495
2023-05-01T10:00:26.734Z,88.3179
2023-05-01T10:01:26.866Z,87.7887
2023-05-01T10:02:27.058Z,89.4188
2023-05-01T10:03:27.331Z,89.2347
2023-05-01T10:04:27.480Z,89.2285
2023-05-01T10:05:27.698Z,88.5694
2023-05-01T10:06:27.995Z,87.4297
2023-05-01T10:07:28.112Z,87.5134
2023-05-01T10:08:28.195Z,88.6177
2023-05-01T10:09:28.313Z,88.5629
2023-05-01T10:10:28.462Z,87.0338
2023-05-01T10:11:28.708Z,86.7586
2023-05-01T10:12:28.782Z,86.9419
2023-05-01T10:13:28.898Z,87.9518
2023-05-01T10:14:29.028Z,86.9195
2023-05-01T10:15:29.143Z,87.2674
2023-05-01T10:16:29.321Z,87.3006
2023-05-01T10:17:29.489Z,86.3643
2023-05-01T10:18:29.584Z,86.2409
2023-05-01T10:19:29.708Z,86.0839
2023-05-01T10:20:29.850Z,85.9128
2023-05-01T10:21:29.965Z,86.6375
2023-05-01T10:22:30.089Z,86.5508
2023-05-01T10:23:30.194Z,86.9645
2023-05-01T10:24:30.393Z,87.4878
2023-05-01T10:25:30.503Z,87.4539
2023-05-01T10:26:30.625Z,86.3656
2023-05-01T10:27:30.763Z,84.6541
2023-05-01T10:28:30.964Z,83.3577
2023-05-01T10:29:31.063Z,84.8559
2023-05-01T10:30:31.153Z,82.2156
2023-05-01T10:31:31.334Z,82.3705
2023-05-01T10:32:31.437Z,81.8557
2023-05-01T10:33:31.569Z,81.6358
2023-05-01T10:34:31.717Z,82.0725
2023-05-01T10:35:31.878Z,82.7005
2023-05-01T10:36:32.022Z,83.6607
2023-05-01T10:37:32.119Z,81.9262
2023-05-01T10:38:32.239Z,83.6905
2023-05-01T10:39:32.378Z,84.7000
2023-05-01T10:40:32.539Z,82.9931
2023-05-01T10:41:32.671Z,81.2694
2023-05-01T10:42:32.826Z,82.0530
2023-05-01T10:43:33.921Z,83.0525
2023-05-01T10:44:34.047Z,82.0684
2023-05-01T10:45:35.896Z,80.9495
2023-05-01T10:46:36.075Z,82.5486
2023-05-01T10:47:36.241Z,82.8472
2023-05-01T10:48:36.366Z,83.2635
2023-05-01T10:49:36.488Z,83.0101
2023-05-01T10:50:36.641Z,84.1745
2023-05-01T10:51:36.741Z,83.6605
2023-05-01T10:52:36.858Z,83.1811
2023-05-01T10:53:36.979Z,83.0777
2023-05-01T10:54:37.222Z,83.2703
2023-05-01T10:55:37.388Z,82.9165
2023-05-01T10:56:37.503Z,83.0216
2023-05-01T10:57:37.646Z,82.5438
2023-05-01T10:58:37.749Z,82.8049
2023-05-01T10:59:37.940Z,83.9811
2023-05-01T11:00:38.096Z,84.4006
2023-05-01T11:01:38.268Z,85.2044
2023-05-01T11:02:38.424Z,84.8219
2023-05-01T11:03:38.514Z,84.6530
2023-05-01T11:04:38.627Z,82.1182
2023-05-01T11:05:38.928Z,82.3161
2023-05-01T11:06:39.172Z,81.8460
2023-05-01T11:07:39.364Z,82.6978
2023-05-01T11:08:39.486Z,83.0336
2023-05-01T11:09:39.608Z,83.8487
2023-05-01T11:10:39.736Z,82.8121
2023-05-01T11:11:39.855Z,83.5130
2023-05-01T11:12:39.985Z,83.1767
2023-05-01T11:13:40.166Z,83.8019
2023-05-01T11:14:40.317Z,83.0989
2023-05-01T11:15:40.412Z,82.1096
2023-05-01T11:16:40.631Z,83.3470
2023-05-01T11:17:40.965Z,81.3390
2023-05-01T11:18:41.087Z,82.7577
2023-05-01T11:19:41.218Z,82.0228
2023-05-01T11:20:41.359Z,81.9292
2023-05-01T11:21:41.468Z,83.7955
2023-05-01T11:22:41.592Z,83.6503
2023-05-01T11:23:41.708Z,83.5369
2023-05-01T11:24:41.953Z,83.6055
2023-05-01T11:25:42.085Z,84.9761
2023-05-01T11:26:42.244Z,84.1085
2023-05-01T11:27:42.320Z,84.1525
2023-05-01T11:28:42.455Z,84.7852
2023-05-01T11:29:42.559Z,83.0908
2023-05-01T11:30:42.807Z,83.7101
2023-05-01T11:31:42.970Z,84.2713
2023-05-01T11:32:43.104Z,84.7812
2023-05-01T11:33:43.285Z,85.0555
2023-05-01T11:34:43.451Z,85.1813
2023-05-01T11:35:43.618Z,84.8447
2023-05-01T11:36:43.797Z,85.2488
2023-05-01T11:37:43.949Z,84.6770
2023-05-01T11:38:44.092Z,85.8457
2023-05-01T11:39:44.265Z,85.8784
2023-05-01T11:40:44.447Z,85.6233
2023-05-01T11:41:44.602Z,83.4605
2023-05-01T11:42:44.780Z,84.4978
2023-05-01T11:43:44.952Z,85.7998
2023-05-01T11:44:45.122Z,85.0228
2023-05-01T11:45:45.329Z,83.5005
2023-05-01T11:46:45.446Z,84.6864
2023-05-01T11:47:45.629Z,84.0191
2023-05-01T11:48:45.774Z,84.7387
2023-05-01T11:49:45.976Z,85.2406
2023-05-01T11:50:46.143Z,84.3242
2023-05-01T11:51:46.280Z,83.6241
2023-05-01T11:52:46.499Z,83.3396
2023-05-01T11:53:46.656Z,83.3784
2023-05-01T11:54:46.842Z,84.5501
2023-05-01T11:55:46.971Z,85.2969
2023-05-01T11:56:47.141Z,84.9294
2023-05-01T11:57:47.364Z,85.4529
2023-05-01T11:58:47.533Z,85.1324
2023-05-01T11:59:47.669Z,84.6974
2023-05-01T12:00:47.842Z,84.4553
2023-05-01T12:01:48.061Z,84.6616
2023-05-01T12:02:48.265Z,84.9949
2023-05-01T12:03:48.479Z,84.5606
2023-05-01T12:04:48.741Z,84.3701
2023-05-01T12:05:48.895Z,83.3454
2023-05-01T12:06:49.122Z,83.7885
2023-05-01T12:07:49.256Z,84.0820